sensor_id;sensor_type;location;lat;lon;timestamp;P1;durP1;ratioP1;P2;durP2;ratioP2
76117;SDS011;64851;50.232;20.364;2023-03-12T00:02:31;13.00;;;5.90;;
76117;SDS011;64851;50.232;20.364;2023-03-12T00:05:08;13.40;;;4.80;;
76117;SDS011;64851;50.232;20.364;2023-03-12T00:07:58;12.90;;;5.40;;
76117;SDS011;64851;50.232;20.364;2023-03-12T00:10:40;8.70;;;4.10;;
76117;SDS011;64851;50.232;20.364;2023-03-12T00:16:06;9.70;;;4.70;;
76117;SDS011;64851;50.232;20.364;2023-03-12T00:18:58;10.10;;;4.80;;
76117;SDS011;64851;50.232;20.364;2023-03-12T00:21:33;10.70;;;4.10;;
76117;SDS011;64851;50.232;20.364;2023-03-12T00:24:27;7.50;;;3.10;;
76117;SDS011;64851;50.232;20.364;2023-03-12T00:27:02;7.40;;;3.80;;
76117;SDS011;64851;50.232;20.364;2023-03-12T00:29:50;8.80;;;4.40;;
76117;SDS011;64851;50.232;20.364;2023-03-12T00:32:25;10.10;;;4.10;;
76117;SDS011;64851;50.232;20.364;2023-03-12T00:35:13;9.10;;;4.10;;
76117;SDS011;64851;50.232;20.364;2023-03-12T00:37:48;10.60;;;6.30;;
76117;SDS011;64851;50.232;20.364;2023-03-12T00:40:43;8.30;;;4.00;;
76117;SDS011;64851;50.232;20.364;2023-03-12T00:43:38;7.50;;;3.20;;
76117;SDS011;64851;50.232;20.364;2023-03-12T00:46:33;8.00;;;3.50;;
76117;SDS011;64851;50.232;20.364;2023-03-12T00:49:08;11.00;;;3.50;;
76117;SDS011;64851;50.232;20.364;2023-03-12T00:51:56;8.40;;;3.40;;
76117;SDS011;64851;50.232;20.364;2023-03-12T00:54:31;5.60;;;3.00;;
76117;SDS011;64851;50.232;20.364;2023-03-12T00:57:25;8.30;;;3.80;;
76117;SDS011;64851;50.232;20.364;2023-03-12T01:00:20;8.90;;;4.00;;
76117;SDS011;64851;50.232;20.364;2023-03-12T01:02:55;4.70;;;2.80;;
76117;SDS011;64851;50.232;20.364;2023-03-12T01:05:43;8.70;;;3.90;;
76117;SDS011;64851;50.232;20.364;2023-03-12T01:08:18;10.50;;;4.60;;
76117;SDS011;64851;50.232;20.364;2023-03-12T01:11:06;8.40;;;3.50;;
76117;SDS011;64851;50.232;20.364;2023-03-12T01:13:41;8.00;;;3.60;;
76117;SDS011;64851;50.232;20.364;2023-03-12T01:16:29;7.60;;;3.30;;
76117;SDS011;64851;50.232;20.364;2023-03-12T01:19:12;8.10;;;3.50;;
76117;SDS011;64851;50.232;20.364;2023-03-12T01:21:53;6.20;;;3.10;;
76117;SDS011;64851;50.232;20.364;2023-03-12T01:24:36;8.10;;;3.50;;
76117;SDS011;64851;50.232;20.364;2023-03-12T01:27:23;8.50;;;3.80;;
76117;SDS011;64851;50.232;20.364;2023-03-12T01:29:58;6.90;;;2.90;;
76117;SDS011;64851;50.232;20.364;2023-03-12T01:32:45;8.50;;;3.80;;
76117;SDS011;64851;50.232;20.364;2023-03-12T01:35:20;11.40;;;5.20;;
76117;SDS011;64851;50.232;20.364;2023-03-12T01:38:08;9.40;;;4.50;;
76117;SDS011;64851;50.232;20.364;2023-03-12T01:40:55;10.20;;;3.70;;
76117;SDS011;64851;50.232;20.364;2023-03-12T01:43:51;12.30;;;4.80;;
76117;SDS011;64851;50.232;20.364;2023-03-12T01:46:49;6.90;;;3.40;;
76117;SDS011;64851;50.232;20.364;2023-03-12T01:49:25;6.80;;;3.20;;
76117;SDS011;64851;50.232;20.364;2023-03-12T01:52:32;6.20;;;2.80;;
76117;SDS011;64851;50.232;20.364;2023-03-12T01:55:30;8.70;;;3.40;;
76117;SDS011;64851;50.232;20.364;2023-03-12T01:58:05;7.50;;;2.90;;
76117;SDS011;64851;50.232;20.364;2023-03-12T02:01:00;4.40;;;2.10;;
76117;SDS011;64851;50.232;20.364;2023-03-12T02:03:35;5.50;;;2.50;;
76117;SDS011;64851;50.232;20.364;2023-03-12T02:06:32;7.50;;;3.70;;
76117;SDS011;64851;50.232;20.364;2023-03-12T02:09:10;7.70;;;3.10;;
76117;SDS011;64851;50.232;20.364;2023-03-12T02:12:07;8.00;;;3.00;;
76117;SDS011;64851;50.232;20.364;2023-03-12T02:14:43;5.60;;;2.60;;
76117;SDS011;64851;50.232;20.364;2023-03-12T02:17:31;6.40;;;3.40;;
76117;SDS011;64851;50.232;20.364;2023-03-12T02:23:05;4.70;;;2.60;;
76117;SDS011;64851;50.232;20.364;2023-03-12T02:25:47;6.30;;;3.00;;
76117;SDS011;64851;50.232;20.364;2023-03-12T02:28:43;6.60;;;2.50;;
76117;SDS011;64851;50.232;20.364;2023-03-12T02:31:20;7.00;;;2.40;;
76117;SDS011;64851;50.232;20.364;2023-03-12T02:34:11;6.10;;;3.00;;
76117;SDS011;64851;50.232;20.364;2023-03-12T02:36:46;6.30;;;3.20;;
76117;SDS011;64851;50.232;20.364;2023-03-12T02:39:36;8.80;;;3.90;;
76117;SDS011;64851;50.232;20.364;2023-03-12T02:42:12;6.80;;;3.50;;
76117;SDS011;64851;50.232;20.364;2023-03-12T02:45:00;6.30;;;3.20;;
76117;SDS011;64851;50.232;20.364;2023-03-12T02:47:35;6.90;;;2.60;;
76117;SDS011;64851;50.232;20.364;2023-03-12T02:50:23;7.50;;;3.20;;
76117;SDS011;64851;50.232;20.364;2023-03-12T02:52:58;7.40;;;3.40;;
76117;SDS011;64851;50.232;20.364;2023-03-12T02:55:46;8.30;;;3.80;;
76117;SDS011;64851;50.232;20.364;2023-03-12T02:58:21;9.10;;;4.30;;
76117;SDS011;64851;50.232;20.364;2023-03-12T03:01:08;9.30;;;4.10;;
76117;SDS011;64851;50.232;20.364;2023-03-12T03:03:44;9.00;;;4.00;;
76117;SDS011;64851;50.232;20.364;2023-03-12T03:06:35;6.60;;;4.00;;
76117;SDS011;64851;50.232;20.364;2023-03-12T03:09:11;8.40;;;4.60;;
76117;SDS011;64851;50.232;20.364;2023-03-12T03:12:01;9.90;;;4.30;;
76117;SDS011;64851;50.232;20.364;2023-03-12T03:14:43;8.30;;;3.90;;
76117;SDS011;64851;50.232;20.364;2023-03-12T03:17:25;9.80;;;4.30;;
76117;SDS011;64851;50.232;20.364;2023-03-12T03:20:08;10.90;;;3.90;;
76117;SDS011;64851;50.232;20.364;2023-03-12T03:23:03;7.10;;;3.60;;
76117;SDS011;64851;50.232;20.364;2023-03-12T03:25:59;9.20;;;3.90;;
76117;SDS011;64851;50.232;20.364;2023-03-12T03:28:35;10.00;;;3.90;;
76117;SDS011;64851;50.232;20.364;2023-03-12T03:31:22;9.20;;;4.60;;
76117;SDS011;64851;50.232;20.364;2023-03-12T03:33:57;11.30;;;4.50;;
76117;SDS011;64851;50.232;20.364;2023-03-12T03:36:52;10.10;;;4.30;;
76117;SDS011;64851;50.232;20.364;2023-03-12T03:39:47;9.00;;;4.30;;
76117;SDS011;64851;50.232;20.364;2023-03-12T03:42:22;9.30;;;4.70;;
76117;SDS011;64851;50.232;20.364;2023-03-12T03:45:09;10.80;;;4.90;;
76117;SDS011;64851;50.232;20.364;2023-03-12T03:47:44;9.50;;;4.00;;
76117;SDS011;64851;50.232;20.364;2023-03-12T03:50:33;13.10;;;5.70;;
76117;SDS011;64851;50.232;20.364;2023-03-12T03:53:09;9.90;;;4.70;;
76117;SDS011;64851;50.232;20.364;2023-03-12T03:56:09;7.40;;;3.80;;
76117;SDS011;64851;50.232;20.364;2023-03-12T03:59:05;10.90;;;4.40;;
76117;SDS011;64851;50.232;20.364;2023-03-12T04:01:40;12.50;;;5.70;;
76117;SDS011;64851;50.232;20.364;2023-03-12T04:04:29;11.60;;;5.50;;
76117;SDS011;64851;50.232;20.364;2023-03-12T04:07:04;13.90;;;5.60;;
76117;SDS011;64851;50.232;20.364;2023-03-12T04:09:59;11.90;;;5.60;;
76117;SDS011;64851;50.232;20.364;2023-03-12T04:12:54;10.90;;;5.50;;
76117;SDS011;64851;50.232;20.364;2023-03-12T04:15:29;9.90;;;4.40;;
76117;SDS011;64851;50.232;20.364;2023-03-12T04:18:17;11.20;;;5.10;;
76117;SDS011;64851;50.232;20.364;2023-03-12T04:20:52;10.20;;;4.90;;
76117;SDS011;64851;50.232;20.364;2023-03-12T04:23:40;12.50;;;4.90;;
76117;SDS011;64851;50.232;20.364;2023-03-12T04:26:15;12.20;;;5.50;;
76117;SDS011;64851;50.232;20.364;2023-03-12T04:29:04;9.90;;;4.90;;
76117;SDS011;64851;50.232;20.364;2023-03-12T04:31:39;9.20;;;4.20;;
76117;SDS011;64851;50.232;20.364;2023-03-12T04:34:27;8.10;;;3.90;;
76117;SDS011;64851;50.232;20.364;2023-03-12T04:37:02;9.40;;;4.90;;
76117;SDS011;64851;50.232;20.364;2023-03-12T04:40:04;8.90;;;4.50;;
76117;SDS011;64851;50.232;20.364;2023-03-12T04:43:00;11.60;;;4.80;;
76117;SDS011;64851;50.232;20.364;2023-03-12T04:45:55;10.40;;;5.30;;
76117;SDS011;64851;50.232;20.364;2023-03-12T04:48:52;10.80;;;4.70;;
76117;SDS011;64851;50.232;20.364;2023-03-12T04:51:28;13.90;;;5.00;;
76117;SDS011;64851;50.232;20.364;2023-03-12T04:54:17;11.70;;;5.00;;
76117;SDS011;64851;50.232;20.364;2023-03-12T04:56:54;11.30;;;5.20;;
76117;SDS011;64851;50.232;20.364;2023-03-12T04:59:41;9.30;;;4.80;;
76117;SDS011;64851;50.232;20.364;2023-03-12T05:02:23;10.10;;;4.70;;
76117;SDS011;64851;50.232;20.364;2023-03-12T05:05:06;10.60;;;4.50;;
76117;SDS011;64851;50.232;20.364;2023-03-12T05:07:50;12.80;;;4.30;;
76117;SDS011;64851;50.232;20.364;2023-03-12T05:10:31;11.80;;;5.30;;
76117;SDS011;64851;50.232;20.364;2023-03-12T05:13:15;11.30;;;5.20;;
76117;SDS011;64851;50.232;20.364;2023-03-12T05:16:04;9.70;;;5.00;;
76117;SDS011;64851;50.232;20.364;2023-03-12T05:18:40;9.70;;;4.20;;
76117;SDS011;64851;50.232;20.364;2023-03-12T05:21:28;9.80;;;4.60;;
76117;SDS011;64851;50.232;20.364;2023-03-12T05:24:05;9.80;;;5.30;;
76117;SDS011;64851;50.232;20.364;2023-03-12T05:26:54;11.80;;;5.30;;
76117;SDS011;64851;50.232;20.364;2023-03-12T05:29:37;12.20;;;5.30;;
76117;SDS011;64851;50.232;20.364;2023-03-12T05:32:24;10.70;;;4.60;;
76117;SDS011;64851;50.232;20.364;2023-03-12T05:35:00;9.40;;;4.70;;
76117;SDS011;64851;50.232;20.364;2023-03-12T05:37:50;11.70;;;5.00;;
76117;SDS011;64851;50.232;20.364;2023-03-12T05:40:38;11.80;;;5.10;;
76117;SDS011;64851;50.232;20.364;2023-03-12T05:43:33;11.00;;;5.00;;
76117;SDS011;64851;50.232;20.364;2023-03-12T05:46:28;12.40;;;5.40;;
76117;SDS011;64851;50.232;20.364;2023-03-12T05:49:03;11.60;;;4.70;;
76117;SDS011;64851;50.232;20.364;2023-03-12T05:51:59;11.70;;;5.40;;
76117;SDS011;64851;50.232;20.364;2023-03-12T05:54:54;12.80;;;5.80;;
76117;SDS011;64851;50.232;20.364;2023-03-12T05:57:30;10.10;;;4.40;;
76117;SDS011;64851;50.232;20.364;2023-03-12T06:00:19;10.50;;;5.30;;
76117;SDS011;64851;50.232;20.364;2023-03-12T06:02:54;10.00;;;5.10;;
76117;SDS011;64851;50.232;20.364;2023-03-12T06:05:43;12.20;;;4.60;;
76117;SDS011;64851;50.232;20.364;2023-03-12T06:08:18;11.50;;;5.60;;
76117;SDS011;64851;50.232;20.364;2023-03-12T06:11:06;10.30;;;4.90;;
76117;SDS011;64851;50.232;20.364;2023-03-12T06:13:41;10.40;;;4.60;;
76117;SDS011;64851;50.232;20.364;2023-03-12T06:16:28;8.80;;;4.50;;
76117;SDS011;64851;50.232;20.364;2023-03-12T06:19:04;10.20;;;4.90;;
76117;SDS011;64851;50.232;20.364;2023-03-12T06:21:53;10.10;;;4.50;;
76117;SDS011;64851;50.232;20.364;2023-03-12T06:24:28;9.30;;;4.70;;
76117;SDS011;64851;50.232;20.364;2023-03-12T06:27:22;10.10;;;4.60;;
76117;SDS011;64851;50.232;20.364;2023-03-12T06:30:17;9.30;;;4.40;;
76117;SDS011;64851;50.232;20.364;2023-03-12T06:32:52;9.30;;;5.20;;
76117;SDS011;64851;50.232;20.364;2023-03-12T06:35:40;9.50;;;4.50;;
76117;SDS011;64851;50.232;20.364;2023-03-12T06:38:15;9.10;;;4.20;;
76117;SDS011;64851;50.232;20.364;2023-03-12T06:41:07;10.10;;;4.20;;
76117;SDS011;64851;50.232;20.364;2023-03-12T06:44:04;8.60;;;3.70;;
76117;SDS011;64851;50.232;20.364;2023-03-12T06:46:59;9.30;;;4.30;;
76117;SDS011;64851;50.232;20.364;2023-03-12T06:49:34;6.90;;;3.80;;
76117;SDS011;64851;50.232;20.364;2023-03-12T06:52:22;9.40;;;4.60;;
76117;SDS011;64851;50.232;20.364;2023-03-12T06:54:57;8.40;;;3.70;;
76117;SDS011;64851;50.232;20.364;2023-03-12T06:57:45;9.30;;;3.90;;
76117;SDS011;64851;50.232;20.364;2023-03-12T07:00:20;7.60;;;3.70;;
76117;SDS011;64851;50.232;20.364;2023-03-12T07:03:09;9.80;;;4.80;;
76117;SDS011;64851;50.232;20.364;2023-03-12T07:05:45;10.10;;;4.40;;
76117;SDS011;64851;50.232;20.364;2023-03-12T07:08:33;9.80;;;4.30;;
76117;SDS011;64851;50.232;20.364;2023-03-12T07:11:08;9.20;;;4.60;;
76117;SDS011;64851;50.232;20.364;2023-03-12T07:13:57;11.60;;;4.40;;
76117;SDS011;64851;50.232;20.364;2023-03-12T07:16:39;8.10;;;4.40;;
76117;SDS011;64851;50.232;20.364;2023-03-12T07:19:19;7.10;;;3.90;;
76117;SDS011;64851;50.232;20.364;2023-03-12T07:22:01;8.10;;;4.00;;
76117;SDS011;64851;50.232;20.364;2023-03-12T07:24:41;8.60;;;3.90;;
76117;SDS011;64851;50.232;20.364;2023-03-12T07:27:23;7.70;;;3.80;;
76117;SDS011;64851;50.232;20.364;2023-03-12T07:30:04;7.80;;;4.00;;
76117;SDS011;64851;50.232;20.364;2023-03-12T07:32:47;9.20;;;4.10;;
76117;SDS011;64851;50.232;20.364;2023-03-12T07:35:29;10.40;;;5.20;;
76117;SDS011;64851;50.232;20.364;2023-03-12T07:38:11;9.40;;;3.90;;
76117;SDS011;64851;50.232;20.364;2023-03-12T07:40:58;8.50;;;4.40;;
76117;SDS011;64851;50.232;20.364;2023-03-12T07:43:53;7.60;;;3.60;;
76117;SDS011;64851;50.232;20.364;2023-03-12T07:46:28;4.80;;;2.60;;
76117;SDS011;64851;50.232;20.364;2023-03-12T07:49:16;8.10;;;3.80;;
76117;SDS011;64851;50.232;20.364;2023-03-12T07:51:51;6.70;;;3.20;;
76117;SDS011;64851;50.232;20.364;2023-03-12T07:54:39;7.90;;;3.70;;
76117;SDS011;64851;50.232;20.364;2023-03-12T07:57:14;8.90;;;3.30;;
76117;SDS011;64851;50.232;20.364;2023-03-12T08:00:09;8.20;;;3.70;;
76117;SDS011;64851;50.232;20.364;2023-03-12T08:03:04;6.40;;;3.00;;
76117;SDS011;64851;50.232;20.364;2023-03-12T08:05:40;8.60;;;3.30;;
76117;SDS011;64851;50.232;20.364;2023-03-12T08:08:34;8.70;;;3.90;;
76117;SDS011;64851;50.232;20.364;2023-03-12T08:11:29;7.70;;;3.90;;
76117;SDS011;64851;50.232;20.364;2023-03-12T08:14:14;7.00;;;3.40;;
76117;SDS011;64851;50.232;20.364;2023-03-12T08:16:54;10.50;;;4.30;;
76117;SDS011;64851;50.232;20.364;2023-03-12T08:19:36;6.20;;;2.60;;
76117;SDS011;64851;50.232;20.364;2023-03-12T08:22:16;7.10;;;3.50;;
76117;SDS011;64851;50.232;20.364;2023-03-12T08:24:58;6.50;;;3.00;;
76117;SDS011;64851;50.232;20.364;2023-03-12T08:27:38;7.00;;;3.20;;
76117;SDS011;64851;50.232;20.364;2023-03-12T08:30:20;8.00;;;2.90;;
76117;SDS011;64851;50.232;20.364;2023-03-12T08:33:03;8.00;;;2.90;;
76117;SDS011;64851;50.232;20.364;2023-03-12T08:35:45;5.40;;;2.60;;
76117;SDS011;64851;50.232;20.364;2023-03-12T08:38:27;5.80;;;3.30;;
76117;SDS011;64851;50.232;20.364;2023-03-12T08:41:15;7.00;;;3.20;;
76117;SDS011;64851;50.232;20.364;2023-03-12T08:44:10;8.00;;;3.10;;
76117;SDS011;64851;50.232;20.364;2023-03-12T08:46:45;6.30;;;2.70;;
76117;SDS011;64851;50.232;20.364;2023-03-12T08:49:35;10.90;;;4.60;;
76117;SDS011;64851;50.232;20.364;2023-03-12T08:52:10;15.00;;;6.70;;
76117;SDS011;64851;50.232;20.364;2023-03-12T08:55:06;6.10;;;2.80;;
76117;SDS011;64851;50.232;20.364;2023-03-12T08:57:42;7.10;;;2.70;;
76117;SDS011;64851;50.232;20.364;2023-03-12T09:00:38;8.90;;;3.10;;
76117;SDS011;64851;50.232;20.364;2023-03-12T09:03:34;7.30;;;3.30;;
76117;SDS011;64851;50.232;20.364;2023-03-12T09:06:10;7.90;;;3.40;;
76117;SDS011;64851;50.232;20.364;2023-03-12T09:08:59;6.40;;;2.70;;
76117;SDS011;64851;50.232;20.364;2023-03-12T09:11:38;6.50;;;2.60;;
76117;SDS011;64851;50.232;20.364;2023-03-12T09:14:26;7.20;;;2.80;;
76117;SDS011;64851;50.232;20.364;2023-03-12T09:17:21;8.20;;;3.30;;
76117;SDS011;64851;50.232;20.364;2023-03-12T09:20:09;7.80;;;3.00;;
76117;SDS011;64851;50.232;20.364;2023-03-12T09:22:47;9.00;;;3.10;;
76117;SDS011;64851;50.232;20.364;2023-03-12T09:25:35;7.00;;;3.20;;
76117;SDS011;64851;50.232;20.364;2023-03-12T09:28:17;8.00;;;2.40;;
76117;SDS011;64851;50.232;20.364;2023-03-12T09:31:02;8.70;;;3.10;;
76117;SDS011;64851;50.232;20.364;2023-03-12T09:33:45;7.90;;;3.50;;
76117;SDS011;64851;50.232;20.364;2023-03-12T09:36:32;12.00;;;4.20;;
76117;SDS011;64851;50.232;20.364;2023-03-12T09:39:08;5.80;;;2.80;;
76117;SDS011;64851;50.232;20.364;2023-03-12T09:41:56;6.90;;;3.40;;
76117;SDS011;64851;50.232;20.364;2023-03-12T09:44:38;9.00;;;2.90;;
76117;SDS011;64851;50.232;20.364;2023-03-12T09:47:33;7.50;;;3.80;;
76117;SDS011;64851;50.232;20.364;2023-03-12T09:56:30;7.30;;;3.20;;
76117;SDS011;64851;50.232;20.364;2023-03-12T09:59:17;7.40;;;3.30;;
76117;SDS011;64851;50.232;20.364;2023-03-12T10:01:56;6.80;;;2.70;;
76117;SDS011;64851;50.232;20.364;2023-03-12T10:04:48;7.80;;;2.60;;
76117;SDS011;64851;50.232;20.364;2023-03-12T10:18:55;6.20;;;2.80;;
76117;SDS011;64851;50.232;20.364;2023-03-12T10:27:24;7.80;;;3.30;;
76117;SDS011;64851;50.232;20.364;2023-03-12T10:30:03;6.20;;;3.10;;
76117;SDS011;64851;50.232;20.364;2023-03-12T10:33:01;6.80;;;2.70;;
76117;SDS011;64851;50.232;20.364;2023-03-12T10:35:37;6.30;;;3.10;;
76117;SDS011;64851;50.232;20.364;2023-03-12T10:38:28;5.80;;;2.40;;
76117;SDS011;64851;50.232;20.364;2023-03-12T10:41:12;6.80;;;2.90;;
76117;SDS011;64851;50.232;20.364;2023-03-12T10:44:10;8.20;;;3.70;;
76117;SDS011;64851;50.232;20.364;2023-03-12T10:47:32;8.10;;;3.20;;
76117;SDS011;64851;50.232;20.364;2023-03-12T10:50:25;8.40;;;2.90;;
76117;SDS011;64851;50.232;20.364;2023-03-12T10:56:13;4.90;;;2.50;;
76117;SDS011;64851;50.232;20.364;2023-03-12T10:59:09;7.30;;;2.90;;
76117;SDS011;64851;50.232;20.364;2023-03-12T11:08:34;9.10;;;3.50;;
76117;SDS011;64851;50.232;20.364;2023-03-12T11:11:31;8.10;;;3.10;;
76117;SDS011;64851;50.232;20.364;2023-03-12T11:17:18;5.30;;;2.70;;
76117;SDS011;64851;50.232;20.364;2023-03-12T11:19:54;7.70;;;3.30;;
76117;SDS011;64851;50.232;20.364;2023-03-12T11:22:42;8.90;;;3.70;;
76117;SDS011;64851;50.232;20.364;2023-03-12T11:25:23;6.10;;;2.80;;
76117;SDS011;64851;50.232;20.364;2023-03-12T11:28:17;7.60;;;3.40;;
76117;SDS011;64851;50.232;20.364;2023-03-12T11:30:57;4.60;;;2.20;;
76117;SDS011;64851;50.232;20.364;2023-03-12T11:33:45;6.90;;;2.60;;
76117;SDS011;64851;50.232;20.364;2023-03-12T11:36:25;5.20;;;2.60;;
76117;SDS011;64851;50.232;20.364;2023-03-12T11:42:09;7.10;;;3.50;;
76117;SDS011;64851;50.232;20.364;2023-03-12T11:48:21;10.00;;;4.50;;
76117;SDS011;64851;50.232;20.364;2023-03-12T11:51:23;6.60;;;2.70;;
76117;SDS011;64851;50.232;20.364;2023-03-12T12:00:44;6.70;;;3.20;;
76117;SDS011;64851;50.232;20.364;2023-03-12T12:31:52;7.00;;;2.60;;
76117;SDS011;64851;50.232;20.364;2023-03-12T12:38:06;6.30;;;3.00;;
76117;SDS011;64851;50.232;20.364;2023-03-12T12:40:46;6.20;;;2.80;;
76117;SDS011;64851;50.232;20.364;2023-03-12T12:43:41;6.70;;;2.50;;
76117;SDS011;64851;50.232;20.364;2023-03-12T12:46:21;5.90;;;2.30;;
76117;SDS011;64851;50.232;20.364;2023-03-12T12:52:21;6.50;;;2.80;;
76117;SDS011;64851;50.232;20.364;2023-03-12T12:55:06;6.30;;;2.70;;
76117;SDS011;64851;50.232;20.364;2023-03-12T12:57:53;6.10;;;3.60;;
76117;SDS011;64851;50.232;20.364;2023-03-12T13:00:56;9.00;;;3.10;;
76117;SDS011;64851;50.232;20.364;2023-03-12T13:03:52;7.50;;;3.00;;
76117;SDS011;64851;50.232;20.364;2023-03-12T13:13:03;6.70;;;3.20;;
76117;SDS011;64851;50.232;20.364;2023-03-12T13:16:14;6.10;;;3.30;;
76117;SDS011;64851;50.232;20.364;2023-03-12T13:18:59;9.80;;;3.40;;
76117;SDS011;64851;50.232;20.364;2023-03-12T13:28:00;6.20;;;3.20;;
76117;SDS011;64851;50.232;20.364;2023-03-12T13:37:01;6.80;;;4.10;;
76117;SDS011;64851;50.232;20.364;2023-03-12T13:39:43;6.70;;;3.50;;
76117;SDS011;64851;50.232;20.364;2023-03-12T13:42:31;7.30;;;3.70;;
76117;SDS011;64851;50.232;20.364;2023-03-12T13:45:24;7.40;;;3.90;;
76117;SDS011;64851;50.232;20.364;2023-03-12T13:48:15;6.50;;;3.30;;
76117;SDS011;64851;50.232;20.364;2023-03-12T13:51:13;7.70;;;2.90;;
76117;SDS011;64851;50.232;20.364;2023-03-12T13:54:16;8.00;;;3.30;;
76117;SDS011;64851;50.232;20.364;2023-03-12T13:56:56;6.40;;;3.30;;
76117;SDS011;64851;50.232;20.364;2023-03-12T13:59:54;6.90;;;3.20;;
76117;SDS011;64851;50.232;20.364;2023-03-12T14:03:00;5.30;;;2.70;;
76117;SDS011;64851;50.232;20.364;2023-03-12T14:06:22;4.80;;;3.10;;
76117;SDS011;64851;50.232;20.364;2023-03-12T14:12:05;6.60;;;3.70;;
76117;SDS011;64851;50.232;20.364;2023-03-12T14:18:00;5.90;;;3.60;;
76117;SDS011;64851;50.232;20.364;2023-03-12T14:20:58;5.20;;;2.90;;
76117;SDS011;64851;50.232;20.364;2023-03-12T14:23:55;4.30;;;2.20;;
76117;SDS011;64851;50.232;20.364;2023-03-12T14:26:32;4.90;;;2.70;;
76117;SDS011;64851;50.232;20.364;2023-03-12T14:32:23;5.70;;;2.60;;
76117;SDS011;64851;50.232;20.364;2023-03-12T14:38:24;8.90;;;3.50;;
76117;SDS011;64851;50.232;20.364;2023-03-12T14:41:19;5.20;;;3.00;;
76117;SDS011;64851;50.232;20.364;2023-03-12T14:44:31;7.50;;;3.40;;
76117;SDS011;64851;50.232;20.364;2023-03-12T14:47:12;6.00;;;2.80;;
76117;SDS011;64851;50.232;20.364;2023-03-12T14:49:58;6.00;;;3.00;;
76117;SDS011;64851;50.232;20.364;2023-03-12T14:52:40;5.00;;;2.70;;
76117;SDS011;64851;50.232;20.364;2023-03-12T14:55:27;5.90;;;3.00;;
76117;SDS011;64851;50.232;20.364;2023-03-12T14:58:16;5.60;;;3.10;;
76117;SDS011;64851;50.232;20.364;2023-03-12T15:01:02;5.60;;;3.10;;
76117;SDS011;64851;50.232;20.364;2023-03-12T15:03:47;6.50;;;2.80;;
76117;SDS011;64851;50.232;20.364;2023-03-12T15:06:39;8.20;;;3.30;;
76117;SDS011;64851;50.232;20.364;2023-03-12T15:09:24;7.00;;;3.90;;
76117;SDS011;64851;50.232;20.364;2023-03-12T15:12:21;7.00;;;3.50;;
76117;SDS011;64851;50.232;20.364;2023-03-12T15:15:00;10.30;;;4.30;;
76117;SDS011;64851;50.232;20.364;2023-03-12T15:17:52;6.40;;;3.30;;
76117;SDS011;64851;50.232;20.364;2023-03-12T15:20:36;6.20;;;3.20;;
76117;SDS011;64851;50.232;20.364;2023-03-12T15:23:24;6.70;;;3.30;;
76117;SDS011;64851;50.232;20.364;2023-03-12T15:28:55;6.90;;;3.30;;
76117;SDS011;64851;50.232;20.364;2023-03-12T15:31:46;6.90;;;3.60;;
76117;SDS011;64851;50.232;20.364;2023-03-12T15:34:31;6.10;;;3.10;;
76117;SDS011;64851;50.232;20.364;2023-03-12T15:37:27;7.00;;;3.30;;
76117;SDS011;64851;50.232;20.364;2023-03-12T15:40:26;6.90;;;3.40;;
76117;SDS011;64851;50.232;20.364;2023-03-12T15:43:13;7.00;;;3.00;;
76117;SDS011;64851;50.232;20.364;2023-03-12T15:46:04;6.60;;;3.10;;
76117;SDS011;64851;50.232;20.364;2023-03-12T15:48:40;8.00;;;3.30;;
76117;SDS011;64851;50.232;20.364;2023-03-12T15:51:35;4.70;;;2.90;;
76117;SDS011;64851;50.232;20.364;2023-03-12T16:00:06;9.00;;;3.10;;
76117;SDS011;64851;50.232;20.364;2023-03-12T16:03:01;6.50;;;3.30;;
76117;SDS011;64851;50.232;20.364;2023-03-12T16:05:46;6.20;;;3.00;;
76117;SDS011;64851;50.232;20.364;2023-03-12T16:08:35;6.20;;;3.00;;
76117;SDS011;64851;50.232;20.364;2023-03-12T16:11:23;6.20;;;3.10;;
76117;SDS011;64851;50.232;20.364;2023-03-12T16:14:07;6.20;;;3.10;;
76117;SDS011;64851;50.232;20.364;2023-03-12T16:16:54;6.60;;;2.80;;
76117;SDS011;64851;50.232;20.364;2023-03-12T16:19:49;5.60;;;2.60;;
76117;SDS011;64851;50.232;20.364;2023-03-12T16:22:44;4.50;;;2.70;;
76117;SDS011;64851;50.232;20.364;2023-03-12T16:25:19;5.20;;;2.80;;
76117;SDS011;64851;50.232;20.364;2023-03-12T16:28:10;7.20;;;3.00;;
76117;SDS011;64851;50.232;20.364;2023-03-12T16:30:48;6.80;;;3.40;;
76117;SDS011;64851;50.232;20.364;2023-03-12T16:33:36;6.80;;;3.20;;
76117;SDS011;64851;50.232;20.364;2023-03-12T16:36:12;9.10;;;3.90;;
76117;SDS011;64851;50.232;20.364;2023-03-12T16:39:08;7.30;;;3.10;;
76117;SDS011;64851;50.232;20.364;2023-03-12T16:42:04;8.30;;;3.40;;
76117;SDS011;64851;50.232;20.364;2023-03-12T16:45:08;7.30;;;3.40;;
76117;SDS011;64851;50.232;20.364;2023-03-12T16:48:05;9.20;;;4.10;;
76117;SDS011;64851;50.232;20.364;2023-03-12T16:50:40;9.40;;;3.30;;
76117;SDS011;64851;50.232;20.364;2023-03-12T16:53:32;8.70;;;4.10;;
76117;SDS011;64851;50.232;20.364;2023-03-12T16:56:17;8.70;;;4.40;;
76117;SDS011;64851;50.232;20.364;2023-03-12T16:59:09;8.70;;;4.80;;
76117;SDS011;64851;50.232;20.364;2023-03-12T17:01:51;11.00;;;4.40;;
76117;SDS011;64851;50.232;20.364;2023-03-12T17:04:39;9.30;;;4.60;;
76117;SDS011;64851;50.232;20.364;2023-03-12T17:07:14;8.10;;;4.20;;
76117;SDS011;64851;50.232;20.364;2023-03-12T17:10:03;7.30;;;3.80;;
76117;SDS011;64851;50.232;20.364;2023-03-12T17:12:39;9.30;;;3.80;;
76117;SDS011;64851;50.232;20.364;2023-03-12T17:15:35;6.90;;;3.80;;
76117;SDS011;64851;50.232;20.364;2023-03-12T17:18:30;10.00;;;3.80;;
76117;SDS011;64851;50.232;20.364;2023-03-12T17:21:06;7.40;;;3.10;;
76117;SDS011;64851;50.232;20.364;2023-03-12T17:24:03;9.00;;;3.90;;
76117;SDS011;64851;50.232;20.364;2023-03-12T17:27:01;8.40;;;4.30;;
76117;SDS011;64851;50.232;20.364;2023-03-12T17:29:36;5.90;;;3.10;;
76117;SDS011;64851;50.232;20.364;2023-03-12T17:32:23;8.10;;;4.00;;
76117;SDS011;64851;50.232;20.364;2023-03-12T17:34:59;8.70;;;4.00;;
76117;SDS011;64851;50.232;20.364;2023-03-12T17:37:53;5.60;;;2.80;;
76117;SDS011;64851;50.232;20.364;2023-03-12T17:40:48;10.90;;;4.40;;
76117;SDS011;64851;50.232;20.364;2023-03-12T17:43:23;8.90;;;5.10;;
76117;SDS011;64851;50.232;20.364;2023-03-12T17:46:18;15.80;;;6.40;;
76117;SDS011;64851;50.232;20.364;2023-03-12T17:49:13;34.00;;;10.50;;
76117;SDS011;64851;50.232;20.364;2023-03-12T17:51:55;21.30;;;7.50;;
76117;SDS011;64851;50.232;20.364;2023-03-12T17:54:36;19.90;;;8.60;;
76117;SDS011;64851;50.232;20.364;2023-03-12T17:57:18;16.60;;;7.60;;
76117;SDS011;64851;50.232;20.364;2023-03-12T18:00:05;27.90;;;10.00;;
76117;SDS011;64851;50.232;20.364;2023-03-12T18:02:52;27.50;;;10.50;;
76117;SDS011;64851;50.232;20.364;2023-03-12T18:05:40;13.10;;;5.40;;
76117;SDS011;64851;50.232;20.364;2023-03-12T18:08:16;13.80;;;5.80;;
76117;SDS011;64851;50.232;20.364;2023-03-12T18:11:11;11.20;;;4.30;;
76117;SDS011;64851;50.232;20.364;2023-03-12T18:14:06;10.40;;;4.90;;
76117;SDS011;64851;50.232;20.364;2023-03-12T18:16:41;9.00;;;3.90;;
76117;SDS011;64851;50.232;20.364;2023-03-12T18:19:29;9.70;;;4.10;;
76117;SDS011;64851;50.232;20.364;2023-03-12T18:22:10;9.10;;;3.90;;
76117;SDS011;64851;50.232;20.364;2023-03-12T18:25:00;11.60;;;4.40;;
76117;SDS011;64851;50.232;20.364;2023-03-12T18:27:36;11.20;;;4.90;;
76117;SDS011;64851;50.232;20.364;2023-03-12T18:30:25;9.50;;;4.30;;
76117;SDS011;64851;50.232;20.364;2023-03-12T18:33:02;11.00;;;5.40;;